Map

Track Data

SID SEASON NUMBER BASIN SUBBASIN NAME ISO_TIME NATURE LAT LON WMO_WIND WMO_PRES WMO_AGENCY TRACK_TYPE DIST2LAND LANDFALL IFLAG USA_AGENCY USA_ATCF_ID USA_LAT USA_LON USA_RECORD USA_STATUS USA_WIND USA_PRES USA_SSHS USA_R34_NE USA_R34_SE USA_R34_SW USA_R34_NW USA_R50_NE USA_R50_SE USA_R50_SW USA_R50_NW USA_R64_NE USA_R64_SE USA_R64_SW USA_R64_NW USA_POCI USA_ROCI USA_RMW USA_EYE TOKYO_LAT TOKYO_LON TOKYO_GRADE TOKYO_WIND TOKYO_PRES TOKYO_R50_DIR TOKYO_R50_LONG TOKYO_R50_SHORT TOKYO_R30_DIR TOKYO_R30_LONG TOKYO_R30_SHORT TOKYO_LAND CMA_LAT CMA_LON CMA_CAT CMA_WIND CMA_PRES HKO_LAT HKO_LON HKO_CAT HKO_WIND HKO_PRES NEWDELHI_LAT NEWDELHI_LON NEWDELHI_GRADE NEWDELHI_WIND NEWDELHI_PRES NEWDELHI_CI NEWDELHI_DP NEWDELHI_POCI REUNION_LAT REUNION_LON REUNION_TYPE REUNION_WIND REUNION_PRES REUNION_TNUM REUNION_CI REUNION_RMW REUNION_R34_NE REUNION_R34_SE REUNION_R34_SW REUNION_R34_NW REUNION_R50_NE REUNION_R50_SE REUNION_R50_SW REUNION_R50_NW REUNION_R64_NE REUNION_R64_SE REUNION_R64_SW REUNION_R64_NW BOM_LAT BOM_LON BOM_TYPE BOM_WIND BOM_PRES BOM_TNUM BOM_CI BOM_RMW BOM_R34_NE BOM_R34_SE BOM_R34_SW BOM_R34_NW BOM_R50_NE BOM_R50_SE BOM_R50_SW BOM_R50_NW BOM_R64_NE BOM_R64_SE BOM_R64_SW BOM_R64_NW BOM_ROCI BOM_POCI BOM_EYE BOM_POS_METHOD BOM_PRES_METHOD NADI_LAT NADI_LON NADI_CAT NADI_WIND NADI_PRES WELLINGTON_LAT WELLINGTON_LON WELLINGTON_WIND WELLINGTON_PRES DS824_LAT DS824_LON DS824_STAGE DS824_WIND DS824_PRES TD9636_LAT TD9636_LON TD9636_STAGE TD9636_WIND TD9636_PRES TD9635_LAT TD9635_LON TD9635_WIND TD9635_PRES TD9635_ROCI NEUMANN_LAT NEUMANN_LON NEUMANN_CLASS NEUMANN_WIND NEUMANN_PRES MLC_LAT MLC_LON MLC_CLASS MLC_WIND MLC_PRES USA_GUST BOM_GUST BOM_GUST_PER REUNION_GUST REUNION_GUST_PER USA_SEAHGT USA_SEARAD_NE USA_SEARAD_SE USA_SEARAD_SW USA_SEARAD_NW STORM_SPEED STORM_DIR
1932100S10099 1932 22 SI WA NOT_NAMED 1932-04-09 00:00:00 TS -9.90000 99.3000 main 722 722 _________O____ -1 -9.90000 99.3000 TC 25 5 234
1932100S10099 1932 22 SI WA NOT_NAMED 1932-04-09 03:00:00 TS -10.0500 99.0900 main 753 753 _________P____ -1 -10.0500 99.0900 TC 25 5 233
1932100S10099 1932 22 SI WA NOT_NAMED 1932-04-09 06:00:00 TS -10.2000 98.9000 main 775 775 _________O____ -1 -10.2000 98.9000 TC 25 5 229
1932100S10099 1932 22 SI WA NOT_NAMED 1932-04-09 09:00:00 TS -10.3500 98.7425 main 798 798 _________P____ -1 -10.3500 98.7425 TC 25 4 224
1932100S10099 1932 22 SI WA NOT_NAMED 1932-04-09 12:00:00 TS -10.5000 98.6000 main 822 822 _________O____ -1 -10.5000 98.6000 TC 25 4 225
1932100S10099 1932 22 SI WA NOT_NAMED 1932-04-09 15:00:00 TS -10.6500 98.4425 main 844 853 _________P____ -1 -10.6500 98.4425 TC 25 4 224
1932100S10099 1932 22 SI WA NOT_NAMED 1932-04-09 18:00:00 TS -10.8000 98.3000 main 869 869 _________O____ -1 -10.8000 98.3000 TC 25 4 217
1932100S10099 1932 22 SI WA NOT_NAMED 1932-04-09 21:00:00 TS -10.9500 98.2150 main 884 884 _________P____ -1 -10.9500 98.2150 TC 25 4 213
1932100S10099 1932 22 SI WA NOT_NAMED 1932-04-10 00:00:00 TS -11.1000 98.1000 main 909 909 _________O____ -1 -11.1000 98.1000 TC 25 5 230
1932100S10099 1932 22 SI WA NOT_NAMED 1932-04-10 03:00:00 TS -11.2425 97.8650 main 931 931 _________P____ -1 -11.2425 97.8650 TC 25 6 239
1932100S10099 1932 22 SI WA NOT_NAMED 1932-04-10 06:00:00 TS -11.4000 97.6000 main 968 968 _________O____ -1 -11.4000 97.6000 TC 25 6 233
1932100S10099 1932 22 SI WA NOT_NAMED 1932-04-10 09:00:00 TS -11.6000 97.3850 main 999 999 _________P____ -1 -11.6000 97.3850 TC 25 6 224
1932100S10099 1932 22 SI WA NOT_NAMED 1932-04-10 12:00:00 TS -11.8000 97.2000 main 1030 1030 _________O____ -1 -11.8000 97.2000 TC 25 5 224
1932100S10099 1932 22 SI WA NOT_NAMED 1932-04-10 15:00:00 TS -11.9500 97.0424 main 1053 1053 _________P____ -1 -11.9500 97.0424 TC 25 4 224
1932100S10099 1932 22 SI WA NOT_NAMED 1932-04-10 18:00:00 TS -12.1000 96.9000 main 1077 1077 _________O____ -1 -12.1000 96.9000 TC 25 4 219
1932100S10099 1932 22 SI WA NOT_NAMED 1932-04-10 21:00:00 TS -12.2850 96.7649 main 1101 1101 _________P____ -1 -12.2850 96.7649 TC 25 5 216
1932100S10099 1932 22 SI WA NOT_NAMED 1932-04-11 00:00:00 TS -12.5000 96.6000 main 1132 1132 _________O____ -1 -12.5000 96.6000 TC 25 6 220
1932100S10099 1932 22 SI WA NOT_NAMED 1932-04-11 03:00:00 TS -12.7425 96.3650 main 1163 1163 _________P____ -1 -12.7425 96.3650 TC 25 7 224
1932100S10099 1932 22 SI WA NOT_NAMED 1932-04-11 06:00:00 TS -13.0000 96.1000 main 1210 1210 _________O____ -1 -13.0000 96.1000 TC 25 7 225
1932100S10099 1932 22 SI WA NOT_NAMED 1932-04-11 09:00:00 TS -13.2425 95.8499 main 1248 1248 _________P____ -1 -13.2425 95.8499 TC 25 7 224
1932100S10099 1932 22 SI WA NOT_NAMED 1932-04-11 12:00:00 TS -13.5000 95.6000 main 1287 1287 _________O____ -1 -13.5000 95.6000 TC 25 7 221
1932100S10099 1932 22 SI WA NOT_NAMED 1932-04-11 15:00:00 TS -13.8000 95.3575 main 1327 1327 _________P____ -1 -13.8000 95.3575 TC 25 8 219
1932100S10099 1932 22 SI WA NOT_NAMED 1932-04-11 18:00:00 TS -14.1000 95.1000 main 1374 1374 _________O____ -1 -14.1000 95.1000 TC 25 8 224
1932100S10099 1932 22 SI WA NOT_NAMED 1932-04-11 21:00:00 TS -14.3425 94.8148 main 1412 1412 _________P____ -1 -14.3425 94.8148 TC 25 8 229
1932100S10099 1932 22 SI WA NOT_NAMED 1932-04-12 00:00:00 TS -14.6000 94.5000 main 1458 1458 _________O____ -1 -14.6000 94.5000 TC 25 9 227
1932100S10099 1932 22 SI WA NOT_NAMED 1932-04-12 03:00:00 TS -14.9350 94.1500 main 1504 1504 _________P____ -1 -14.9350 94.1500 TC 25 10 224
1932100S10099 1932 22 SI WA NOT_NAMED 1932-04-12 06:00:00 TS -15.3000 93.8000 main 1566 1566 _________O____ -1 -15.3000 93.8000 TC 25 10 221
1932100S10099 1932 22 SI WA NOT_NAMED 1932-04-12 09:00:00 TS -15.6574 93.4999 main 1618 1618 _________P____ -1 -15.6574 93.4999 TC 25 9 220
1932100S10099 1932 22 SI WA NOT_NAMED 1932-04-12 12:00:00 TS -16.0000 93.2000 main 1664 1664 _________O____ -1 -16.0000 93.2000 TC 25 9 224
1932100S10099 1932 22 SI WA NOT_NAMED 1932-04-12 15:00:00 TS -16.3000 92.8499 main 1718 1718 _________P____ -1 -16.3000 92.8499 TC 25 9 228
1932100S10099 1932 22 SI WA NOT_NAMED 1932-04-12 18:00:00 TS -16.6000 92.5000 main 1764 1764 _________O____ -1 -16.6000 92.5000 TC 25 9 224
1932100S10099 1932 22 SI WA NOT_NAMED 1932-04-12 21:00:00 TS -16.9499 92.1924 main 1810 1810 _________P____ -1 -16.9499 92.1924 TC 25 9 219
1932100S10099 1932 22 SI WA NOT_NAMED 1932-04-13 00:00:00 TS -17.3000 91.9000 main 1862 1862 _________O____ -1 -17.3000 91.9000 TC 25 9 221
1932100S10099 1932 22 SI WA NOT_NAMED 1932-04-13 03:00:00 TS -17.6075 91.5999 main 1908 1908 _________P____ -1 -17.6075 91.5999 TC 25 8 224
1932100S10099 1932 22 SI WA NOT_NAMED 1932-04-13 06:00:00 TS -17.9000 91.3000 main 1954 1954 _________O____ -1 -17.9000 91.3000 TC 25 8 224
1932100S10099 1932 22 SI WA NOT_NAMED 1932-04-13 09:00:00 TS -18.1925 90.9999 main 1999 1999 _________P____ -1 -18.1925 90.9999 TC 25 8 224
1932100S10099 1932 22 SI WA NOT_NAMED 1932-04-13 12:00:00 TS -18.5000 90.7000 main 2045 2045 _________O____ -1 -18.5000 90.7000 TC 25 9 222
1932100S10099 1932 22 SI WA NOT_NAMED 1932-04-13 15:00:00 TS -18.8425 90.3925 main 2090 2090 _________P____ -1 -18.8425 90.3925 TC 25 9 219
1932100S10099 1932 22 SI WA NOT_NAMED 1932-04-13 18:00:00 TS -19.2000 90.1000 main 2143 2143 _________O____ -1 -19.2000 90.1000 TC 25 9 217
1932100S10099 1932 22 SI MM NOT_NAMED 1932-04-13 21:00:00 TS -19.5425 89.8274 main 2188 2188 _________P____ -1 -19.5425 89.8274 TC 25 8 214
1932100S10099 1932 22 SI MM NOT_NAMED 1932-04-14 00:00:00 TS -19.9000 89.6000 main 2233 2233 _________O____ -1 -19.9000 89.6000 TC 25 8 207
1932100S10099 1932 22 SI MM NOT_NAMED 1932-04-14 03:00:00 TS -20.2925 89.4125 main 2277 2277 _________P____ -1 -20.2925 89.4125 TC 25 9 199
1932100S10099 1932 22 SI MM NOT_NAMED 1932-04-14 06:00:00 TS -20.7000 89.3000 main 2314 2314 _________O____ -1 -20.7000 89.3000 TC 25 8 190
1932100S10099 1932 22 SI MM NOT_NAMED 1932-04-14 09:00:00 TS -21.1075 89.2624 main 2343 2343 _________P____ -1 -21.1075 89.2624 TC 25 8 179
1932100S10099 1932 22 SI MM NOT_NAMED 1932-04-14 12:00:00 TS -21.5000 89.3000 main 2372 2372 _________O____ -1 -21.5000 89.3000 TC 25 8 172
1932100S10099 1932 22 SI MM NOT_NAMED 1932-04-14 15:00:00 TS -21.8649 89.3626 main 2394 2394 _________P____ -1 -21.8649 89.3626 TC 25 7 165
1932100S10099 1932 22 SI MM NOT_NAMED 1932-04-14 18:00:00 TS -22.2000 89.5000 main 2410 2410 _________O____ -1 -22.2000 89.5000 TC 25 7 152
1932100S10099 1932 22 SI MM NOT_NAMED 1932-04-14 21:00:00 TS -22.5076 89.7247 main 2418 2382 _________P____ -1 -22.5076 89.7247 TC 25 8 142
1932100S10099 1932 22 SI WA NOT_NAMED 1932-04-15 00:00:00 TS -22.8000 90.0000 main 2382 _________O____ -1 -22.8000 90.0000 TC 25 8 139

About IBTrACS Database

This database is a web-friendly format of International Best Track Archive for Climate Stewardship (IBTrACS), a global best track data archive curated by NOAA dating back to 1842.

Updated: 2021-11-26